createdAt,value
2018-07-04T00:00:20.667Z,97.70
2018-07-04T00:02:59.373Z,97.70
2018-07-04T00:05:38.124Z,98.20
2018-07-04T00:08:16.893Z,99.70
2018-07-04T00:10:55.624Z,99.90
2018-07-04T00:13:34.401Z,99.90
2018-07-04T00:16:13.179Z,99.90
2018-07-04T00:18:51.889Z,99.90
2018-07-04T00:21:30.615Z,99.90
2018-07-04T00:24:09.353Z,99.90
2018-07-04T00:26:48.089Z,99.90
2018-07-04T00:29:26.833Z,99.90
2018-07-04T00:32:05.529Z,99.90
2018-07-04T00:34:44.186Z,99.90
2018-07-04T00:37:22.965Z,99.90
2018-07-04T00:40:01.745Z,99.90
2018-07-04T00:42:40.497Z,99.90
2018-07-04T00:45:19.329Z,99.90
2018-07-04T00:47:58.126Z,99.90
2018-07-04T00:50:36.885Z,99.90
2018-07-04T00:53:15.633Z,99.90
2018-07-04T00:55:54.273Z,99.90
2018-07-04T00:58:33.089Z,99.90
2018-07-04T01:01:11.757Z,99.90
2018-07-04T01:03:50.481Z,99.90
2018-07-04T01:06:29.237Z,99.90
2018-07-04T01:09:07.937Z,99.90
2018-07-04T01:11:46.669Z,99.90
2018-07-04T01:14:25.439Z,99.90
2018-07-04T01:17:04.124Z,99.90
2018-07-04T01:19:42.890Z,99.90
2018-07-04T01:22:21.615Z,99.90
2018-07-04T01:25:00.257Z,99.90
2018-07-04T01:27:39.025Z,99.90
2018-07-04T01:30:17.857Z,99.90
2018-07-04T01:32:56.556Z,99.90
2018-07-04T01:35:35.237Z,99.90
2018-07-04T01:38:13.933Z,99.90
2018-07-04T01:40:52.653Z,99.90
2018-07-04T01:43:31.304Z,99.90
2018-07-04T01:46:10.086Z,99.90
2018-07-04T01:48:48.902Z,99.90
2018-07-04T01:51:27.565Z,99.90
2018-07-04T01:54:06.345Z,99.90
2018-07-04T01:56:45.170Z,99.90
2018-07-04T01:59:23.982Z,99.90
2018-07-04T02:02:02.561Z,99.90
2018-07-04T02:04:41.377Z,99.90
2018-07-04T02:07:20.118Z,99.90
2018-07-04T02:09:58.964Z,99.90
2018-07-04T02:12:37.710Z,99.90
2018-07-04T02:15:16.397Z,99.90
2018-07-04T02:17:55.161Z,99.90
2018-07-04T02:20:34.010Z,99.90
2018-07-04T02:23:12.635Z,99.90
2018-07-04T02:25:51.363Z,99.90
2018-07-04T02:28:30.102Z,99.90
2018-07-04T02:31:08.838Z,99.90
2018-07-04T02:33:47.662Z,99.90
2018-07-04T02:36:26.471Z,99.90
2018-07-04T02:39:05.372Z,99.90
2018-07-04T02:41:44.344Z,99.90
2018-07-04T02:44:22.997Z,99.90
2018-07-04T02:47:01.761Z,99.90
2018-07-04T02:49:40.583Z,99.90
2018-07-04T02:52:19.418Z,99.90
2018-07-04T02:54:58.165Z,99.90
2018-07-04T02:57:36.827Z,99.90
2018-07-04T03:00:15.471Z,99.90
2018-07-04T03:02:54.257Z,99.90
2018-07-04T03:05:33.014Z,99.90
2018-07-04T03:08:11.814Z,99.90
2018-07-04T03:10:50.657Z,99.90
2018-07-04T03:13:29.301Z,99.90
2018-07-04T03:16:07.973Z,99.90
2018-07-04T03:23:52.489Z,99.90
2018-07-04T03:26:31.185Z,99.90
2018-07-04T03:29:09.917Z,99.90
2018-07-04T03:31:50.523Z,99.90
2018-07-04T03:34:29.454Z,99.90
2018-07-04T03:37:08.129Z,99.90
2018-07-04T03:39:46.789Z,99.90
2018-07-04T03:42:25.565Z,99.90
2018-07-04T03:45:04.329Z,99.90
2018-07-04T03:47:43.237Z,99.90
2018-07-04T03:50:21.961Z,99.90
2018-07-04T03:53:00.792Z,99.90
2018-07-04T03:55:39.545Z,99.90
2018-07-04T03:58:18.257Z,99.90
2018-07-04T04:00:57.004Z,99.90
2018-07-04T04:03:35.629Z,99.90
2018-07-04T04:06:14.505Z,99.90
2018-07-04T04:08:53.418Z,99.90
2018-07-04T04:11:32.121Z,99.90
2018-07-04T04:14:10.749Z,99.90
2018-07-04T04:16:49.525Z,99.90
2018-07-04T04:19:33.500Z,99.90
2018-07-04T04:22:13.494Z,99.90
2018-07-04T04:24:52.421Z,99.90
2018-07-04T04:27:31.538Z,99.90
2018-07-04T04:30:10.247Z,99.90
2018-07-04T04:32:48.968Z,99.90
2018-07-04T04:35:27.937Z,99.90
2018-07-04T04:38:06.757Z,99.90
2018-07-04T04:40:45.709Z,99.90
2018-07-04T04:43:24.445Z,99.90
2018-07-04T04:46:03.221Z,99.90
2018-07-04T04:48:42.231Z,99.90
2018-07-04T04:51:21.372Z,99.90
2018-07-04T04:54:00.218Z,99.90
2018-07-04T04:56:39.578Z,99.90
2018-07-04T05:01:51.385Z,99.90
2018-07-04T05:04:30.186Z,99.90
2018-07-04T05:07:08.953Z,99.90
2018-07-04T05:09:47.673Z,99.90
2018-07-04T05:12:26.476Z,99.90
2018-07-04T05:15:05.241Z,99.90
2018-07-04T05:17:44.057Z,99.90
2018-07-04T05:20:22.863Z,99.90
2018-07-04T05:23:01.587Z,99.90
2018-07-04T05:25:40.323Z,99.90
2018-07-04T05:28:19.212Z,99.90
2018-07-04T05:30:57.981Z,99.90
2018-07-04T05:33:36.752Z,99.90
2018-07-04T05:36:15.417Z,99.90
2018-07-04T05:38:54.212Z,99.90
2018-07-04T05:41:33.001Z,99.90
2018-07-04T05:44:11.845Z,99.90
2018-07-04T05:46:50.597Z,99.90
2018-07-04T05:49:29.399Z,99.90
2018-07-04T05:52:08.238Z,99.90
2018-07-04T05:54:47.088Z,99.90
2018-07-04T05:57:25.931Z,99.90
2018-07-04T06:00:04.781Z,99.90
2018-07-04T06:02:43.490Z,99.90
2018-07-04T06:05:22.233Z,99.90
2018-07-04T06:08:01.033Z,99.90
2018-07-04T06:10:39.813Z,99.90
2018-07-04T06:13:18.981Z,99.90
2018-07-04T06:15:57.816Z,99.90
2018-07-04T06:18:36.549Z,99.90
2018-07-04T06:21:15.247Z,99.90
2018-07-04T06:23:53.989Z,99.90
2018-07-04T06:26:38.583Z,99.90
2018-07-04T06:29:17.329Z,99.90
2018-07-04T06:31:56.091Z,99.90
2018-07-04T06:34:34.809Z,99.90
2018-07-04T06:37:13.717Z,99.90
2018-07-04T06:39:40.165Z,99.90
2018-07-04T06:42:06.486Z,99.90
2018-07-04T06:44:32.777Z,99.90
2018-07-04T06:46:59.073Z,99.90
2018-07-04T06:49:25.381Z,99.90
2018-07-04T06:51:51.661Z,99.90
2018-07-04T06:54:17.985Z,99.90
2018-07-04T06:56:44.242Z,99.90
2018-07-04T06:59:10.528Z,98.70
2018-07-04T07:01:36.827Z,96.80
2018-07-04T07:04:15.639Z,93.20
2018-07-04T07:06:54.387Z,93.60
2018-07-04T07:09:33.213Z,91.60
2018-07-04T07:12:12.169Z,90.40
2018-07-04T07:14:50.902Z,86.10
2018-07-04T07:17:29.501Z,81.10
2018-07-04T07:20:08.276Z,77.70
2018-07-04T07:22:47.133Z,76.10
2018-07-04T07:25:25.959Z,74.00
2018-07-04T07:28:04.761Z,68.60
2018-07-04T07:30:43.429Z,66.20
2018-07-04T07:33:22.269Z,67.80
2018-07-04T07:36:00.990Z,64.10
2018-07-04T07:38:39.738Z,62.70
2018-07-04T07:41:18.476Z,64.80
2018-07-04T07:43:57.190Z,61.20
2018-07-04T07:46:36.162Z,62.60
2018-07-04T07:49:15.041Z,62.00
2018-07-04T07:51:53.884Z,60.40
2018-07-04T07:54:32.649Z,61.40
2018-07-04T07:57:11.345Z,60.60
2018-07-04T07:59:50.061Z,62.20
2018-07-04T08:02:28.749Z,60.50
2018-07-04T08:05:07.813Z,61.90
2018-07-04T08:07:46.801Z,62.40
2018-07-04T08:10:25.685Z,61.00
2018-07-04T08:13:04.607Z,62.70
2018-07-04T08:15:43.341Z,65.80
2018-07-04T08:18:22.134Z,61.00
2018-07-04T08:21:01.022Z,58.40
2018-07-04T08:23:39.823Z,59.60
2018-07-04T08:26:18.516Z,58.90
2018-07-04T08:28:57.334Z,58.40
2018-07-04T08:31:36.069Z,57.40
2018-07-04T08:34:14.849Z,56.20
2018-07-04T08:36:53.617Z,56.90
2018-07-04T08:39:32.376Z,55.30
2018-07-04T08:42:11.162Z,54.60
2018-07-04T08:44:49.957Z,56.00
2018-07-04T08:47:28.677Z,54.80
2018-07-04T08:50:07.506Z,55.40
2018-07-04T08:52:46.272Z,53.00
2018-07-04T08:55:25.067Z,51.90
2018-07-04T08:58:03.793Z,53.20
2018-07-04T09:00:42.557Z,52.00
2018-07-04T09:03:21.397Z,48.40
2018-07-04T09:06:00.102Z,46.50
2018-07-04T09:08:38.862Z,47.80
2018-07-04T09:11:17.717Z,44.60
2018-07-04T09:13:56.541Z,42.70
2018-07-04T09:16:35.285Z,44.10
2018-07-04T09:19:14.121Z,45.40
2018-07-04T09:21:53.008Z,46.50
2018-07-04T09:24:31.947Z,46.00
2018-07-04T09:27:10.893Z,46.60
2018-07-04T09:29:50.013Z,45.60
2018-07-04T09:32:28.929Z,47.10
2018-07-04T09:35:07.630Z,46.00
2018-07-04T09:37:52.106Z,47.50
2018-07-04T09:40:31.038Z,47.60
2018-07-04T09:43:10.021Z,45.40
2018-07-04T09:45:48.933Z,45.80
2018-07-04T09:48:27.565Z,47.60
2018-07-04T09:51:06.353Z,50.30
2018-07-04T09:53:45.141Z,46.80
2018-07-04T09:56:23.982Z,47.80
2018-07-04T09:59:02.817Z,49.70
2018-07-04T10:01:41.764Z,49.00
2018-07-04T10:04:20.493Z,47.20
2018-07-04T10:06:59.349Z,48.70
2018-07-04T10:09:38.173Z,47.40
2018-07-04T10:12:16.904Z,48.00
2018-07-04T10:14:55.742Z,47.80
2018-07-04T10:17:34.566Z,50.10
2018-07-04T10:20:13.323Z,53.20
2018-07-04T10:22:52.100Z,53.40
2018-07-04T10:25:30.921Z,55.60
2018-07-04T10:28:09.588Z,58.10
2018-07-04T10:30:48.584Z,59.60
2018-07-04T10:33:27.396Z,60.30
2018-07-04T10:36:06.205Z,61.90
2018-07-04T10:38:45.097Z,64.70
2018-07-04T10:41:24.021Z,68.60
2018-07-04T10:44:02.838Z,77.40
2018-07-04T10:46:41.706Z,95.50
2018-07-04T10:49:20.441Z,99.90
2018-07-04T10:51:59.117Z,99.90
2018-07-04T10:54:37.915Z,99.90
2018-07-04T10:57:16.703Z,99.90
2018-07-04T10:59:55.462Z,99.90
2018-07-04T11:02:34.277Z,99.90
2018-07-04T11:05:13.021Z,99.90
2018-07-04T11:07:51.781Z,99.90
2018-07-04T11:10:30.569Z,99.90
2018-07-04T11:13:09.241Z,99.90
2018-07-04T11:15:47.933Z,99.90
2018-07-04T11:18:26.605Z,99.90
2018-07-04T11:21:05.337Z,99.90
2018-07-04T11:23:44.108Z,99.90
2018-07-04T11:26:22.849Z,99.90
2018-07-04T11:29:02.037Z,99.90
2018-07-04T11:31:40.881Z,99.90
2018-07-04T11:37:09.518Z,99.90
2018-07-04T11:39:48.245Z,99.90
2018-07-04T11:42:27.097Z,99.90
2018-07-04T11:45:05.885Z,99.90
2018-07-04T11:47:32.168Z,99.90
2018-07-04T11:49:58.445Z,99.90
2018-07-04T11:52:24.726Z,99.90
2018-07-04T11:54:51.006Z,99.90
2018-07-04T11:57:17.285Z,99.90
2018-07-04T11:59:43.573Z,99.90
2018-07-04T12:02:09.852Z,99.90
2018-07-04T12:04:48.678Z,99.90
2018-07-04T12:07:14.964Z,99.90
2018-07-04T12:09:41.240Z,99.90
2018-07-04T12:12:07.517Z,99.90
2018-07-04T12:14:33.793Z,99.90
2018-07-04T12:17:00.285Z,99.90
2018-07-04T12:19:26.840Z,99.90
2018-07-04T12:21:53.277Z,99.90
2018-07-04T12:24:19.729Z,99.90
2018-07-04T12:26:46.280Z,99.90
2018-07-04T12:29:12.465Z,99.90
2018-07-04T12:31:39.477Z,99.90
2018-07-04T12:34:05.785Z,99.90
2018-07-04T12:36:32.361Z,99.90
2018-07-04T12:38:58.637Z,99.90
2018-07-04T12:41:24.916Z,99.90
2018-07-04T12:43:51.222Z,99.90
2018-07-04T12:46:17.633Z,99.90
2018-07-04T12:48:43.913Z,99.90
2018-07-04T12:51:10.239Z,99.90
2018-07-04T12:53:36.501Z,99.90
2018-07-04T12:56:15.505Z,99.90
2018-07-04T12:58:54.253Z,99.90
2018-07-04T13:04:05.933Z,99.70
2018-07-04T13:06:44.667Z,99.90
2018-07-04T13:09:23.427Z,93.90
2018-07-04T13:12:02.255Z,92.80
2018-07-04T13:14:40.973Z,97.60
2018-07-04T13:17:19.708Z,95.70
2018-07-04T13:19:58.485Z,99.40
2018-07-04T13:22:37.197Z,98.90
2018-07-04T13:25:16.017Z,99.90
2018-07-04T13:27:54.802Z,99.70
2018-07-04T13:30:33.504Z,99.30
2018-07-04T13:33:12.366Z,99.90
2018-07-04T13:35:51.205Z,99.90
2018-07-04T13:38:30.020Z,99.90
2018-07-04T13:41:08.848Z,99.90
2018-07-04T13:43:47.541Z,99.90
2018-07-04T13:46:26.257Z,99.90
2018-07-04T13:49:05.159Z,99.90
2018-07-04T13:51:43.983Z,99.90
2018-07-04T13:54:22.733Z,99.90
2018-07-04T13:57:01.538Z,99.90
2018-07-04T13:59:40.317Z,99.70
2018-07-04T14:02:19.096Z,99.50
2018-07-04T14:04:57.952Z,99.40
2018-07-04T14:07:36.684Z,98.40
2018-07-04T14:10:15.544Z,98.50
2018-07-04T14:12:54.346Z,99.90
2018-07-04T14:15:33.116Z,99.70
2018-07-04T14:18:11.854Z,99.90
2018-07-04T14:20:50.674Z,99.60
2018-07-04T14:23:29.388Z,98.40
2018-07-04T14:26:08.169Z,99.00
2018-07-04T14:28:47.017Z,98.90
2018-07-04T14:31:25.889Z,98.70
2018-07-04T14:34:04.660Z,99.90
2018-07-04T14:36:43.472Z,99.90
2018-07-04T14:39:22.336Z,99.90
2018-07-04T14:42:01.110Z,99.90
2018-07-04T14:44:39.798Z,99.90
2018-07-04T14:47:18.545Z,99.90
2018-07-04T14:49:57.350Z,99.90
2018-07-04T14:52:36.157Z,99.90
2018-07-04T14:55:14.939Z,99.90
2018-07-04T14:57:53.733Z,99.90
2018-07-04T15:00:32.501Z,99.90
2018-07-04T15:03:11.233Z,99.90
2018-07-04T15:05:50.105Z,99.90
2018-07-04T15:08:29.040Z,99.90
2018-07-04T15:11:07.817Z,99.90
2018-07-04T15:13:46.461Z,99.90
2018-07-04T15:16:25.136Z,99.90
2018-07-04T15:19:03.877Z,99.90
2018-07-04T15:21:42.681Z,99.90
2018-07-04T15:24:21.521Z,99.90
2018-07-04T15:27:00.270Z,99.90
2018-07-04T15:29:39.105Z,99.90
2018-07-04T15:32:17.849Z,99.90
2018-07-04T15:34:56.685Z,99.90
2018-07-04T15:37:35.410Z,99.90
2018-07-04T15:40:14.244Z,99.90
2018-07-04T15:42:53.224Z,99.90
2018-07-04T15:45:32.126Z,99.90
2018-07-04T15:48:10.961Z,99.90
2018-07-04T15:50:49.762Z,99.90
2018-07-04T15:53:28.557Z,99.90
2018-07-04T15:56:07.364Z,99.90
2018-07-04T15:58:46.141Z,99.90
2018-07-04T16:01:24.933Z,99.90
2018-07-04T16:04:03.670Z,99.90
2018-07-04T16:06:42.445Z,99.90
2018-07-04T16:09:21.161Z,99.90
2018-07-04T16:11:59.997Z,99.90
2018-07-04T16:14:38.709Z,99.90
2018-07-04T16:17:17.534Z,99.90
2018-07-04T16:19:56.290Z,99.90
2018-07-04T16:22:35.121Z,99.90
2018-07-04T16:25:13.987Z,99.90
2018-07-04T16:27:52.803Z,99.90
2018-07-04T16:30:31.593Z,99.90
2018-07-04T16:33:10.380Z,99.90
2018-07-04T16:35:49.093Z,99.90
2018-07-04T16:38:27.945Z,99.90
2018-07-04T16:41:06.682Z,99.90
2018-07-04T16:43:45.429Z,99.90
2018-07-04T16:46:24.365Z,99.90
2018-07-04T16:49:03.251Z,99.90
2018-07-04T16:51:42.145Z,99.90
2018-07-04T16:54:20.992Z,99.90
2018-07-04T16:56:59.709Z,99.90
2018-07-04T16:59:38.525Z,99.90
2018-07-04T17:02:17.291Z,99.90
2018-07-04T17:04:56.056Z,99.90
2018-07-04T17:07:35.181Z,99.90
2018-07-04T17:10:13.897Z,99.90
2018-07-04T17:12:52.733Z,99.90
2018-07-04T17:15:31.585Z,99.90
2018-07-04T17:18:10.646Z,99.90
2018-07-04T17:20:49.876Z,99.90
2018-07-04T17:23:28.809Z,99.90
2018-07-04T17:26:07.538Z,99.90
2018-07-04T17:28:46.189Z,99.90
2018-07-04T17:33:58.272Z,99.90
2018-07-04T17:36:37.190Z,99.90
2018-07-04T17:39:16.780Z,99.90
2018-07-04T17:41:55.540Z,99.90
2018-07-04T17:44:34.590Z,99.90
2018-07-04T17:47:13.520Z,99.90
2018-07-04T17:49:52.493Z,99.90
2018-07-04T17:52:31.326Z,99.90
2018-07-04T17:55:10.033Z,99.90
2018-07-04T17:57:49.024Z,99.90
2018-07-04T18:00:27.988Z,99.90
2018-07-04T18:03:06.854Z,99.90
2018-07-04T18:05:45.742Z,99.90
2018-07-04T18:08:24.506Z,99.90
2018-07-04T18:11:03.402Z,99.90
2018-07-04T18:13:42.217Z,99.90
2018-07-04T18:18:53.997Z,99.90
2018-07-04T18:21:32.718Z,99.90
2018-07-04T18:24:11.565Z,99.90
2018-07-04T18:26:50.373Z,99.90
2018-07-04T18:32:02.893Z,99.90
2018-07-04T18:34:41.825Z,99.90
2018-07-04T18:37:20.517Z,99.90
2018-07-04T18:39:59.293Z,99.90
2018-07-04T18:42:38.020Z,99.90
2018-07-04T18:45:16.720Z,99.90
2018-07-04T18:47:55.447Z,99.90
2018-07-04T18:50:34.388Z,99.90
2018-07-04T18:53:13.410Z,99.90
2018-07-04T18:55:52.133Z,99.90
2018-07-04T18:58:30.921Z,99.90
2018-07-04T19:01:09.778Z,99.90
2018-07-04T19:03:48.505Z,99.90
2018-07-04T19:06:27.249Z,99.90
2018-07-04T19:09:06.613Z,99.90
2018-07-04T19:11:45.453Z,99.90
2018-07-04T19:14:24.175Z,99.90
2018-07-04T19:17:03.129Z,99.90
2018-07-04T19:19:42.629Z,99.90
2018-07-04T19:22:21.625Z,99.90
2018-07-04T19:25:00.535Z,99.90
2018-07-04T19:27:39.393Z,99.90
2018-07-04T19:30:18.015Z,99.90
2018-07-04T19:32:56.837Z,99.90
2018-07-04T19:35:36.013Z,99.90
2018-07-04T19:38:14.901Z,99.90
2018-07-04T19:40:53.710Z,99.90
2018-07-04T19:43:32.591Z,99.90
2018-07-04T19:46:11.372Z,99.90
2018-07-04T19:48:50.191Z,99.90
2018-07-04T19:51:30.227Z,99.90
2018-07-04T19:54:09.073Z,99.90
2018-07-04T19:56:47.792Z,99.90
2018-07-04T19:59:26.672Z,99.90
2018-07-04T20:02:05.412Z,99.90
2018-07-04T20:04:48.035Z,99.90
2018-07-04T20:07:30.577Z,99.90
2018-07-04T20:10:09.326Z,99.90
2018-07-04T20:12:48.037Z,99.90
2018-07-04T20:15:26.718Z,99.90
2018-07-04T20:18:05.576Z,99.90
2018-07-04T20:20:50.511Z,99.90
2018-07-04T20:23:29.188Z,99.90
2018-07-04T20:26:07.913Z,99.90
2018-07-04T20:28:46.689Z,99.90
2018-07-04T20:31:25.416Z,99.90
2018-07-04T20:34:04.153Z,99.90
2018-07-04T20:36:54.064Z,99.90
2018-07-04T20:39:33.017Z,99.90
2018-07-04T20:42:17.997Z,99.90
2018-07-04T20:45:02.519Z,99.90
2018-07-04T20:47:41.563Z,99.90
2018-07-04T20:50:20.358Z,99.90
2018-07-04T20:52:59.080Z,99.90
2018-07-04T20:55:38.079Z,99.90
2018-07-04T20:58:16.785Z,99.90
2018-07-04T21:00:55.561Z,99.90
2018-07-04T21:03:34.235Z,99.90
2018-07-04T21:06:13.161Z,99.90
2018-07-04T21:08:51.914Z,99.90
2018-07-04T21:11:30.717Z,99.90
2018-07-04T21:14:09.461Z,99.90
2018-07-04T21:16:48.238Z,99.90
2018-07-04T21:19:27.056Z,99.90
2018-07-04T21:22:05.784Z,99.90
2018-07-04T21:24:44.598Z,99.90
2018-07-04T21:27:23.269Z,99.90
2018-07-04T21:30:02.186Z,99.90
2018-07-04T21:32:40.997Z,99.90
2018-07-04T21:35:19.847Z,99.90
2018-07-04T21:37:58.553Z,99.90
2018-07-04T21:40:37.252Z,99.90
2018-07-04T21:45:48.937Z,99.90
2018-07-04T21:48:27.749Z,99.90
2018-07-04T21:51:06.852Z,99.90
2018-07-04T21:53:46.089Z,99.90
2018-07-04T21:56:25.025Z,99.90
2018-07-04T21:59:03.820Z,99.90
2018-07-04T22:01:42.710Z,99.90
2018-07-04T22:04:21.559Z,99.90
2018-07-04T22:07:00.491Z,99.90
2018-07-04T22:09:39.203Z,99.90
2018-07-04T22:12:17.953Z,99.90
2018-07-04T22:14:56.737Z,99.90
2018-07-04T22:17:35.509Z,99.90
2018-07-04T22:20:14.226Z,99.90
2018-07-04T22:22:52.969Z,99.90
2018-07-04T22:25:31.825Z,99.90
2018-07-04T22:28:10.553Z,99.90
2018-07-04T22:30:49.281Z,99.90
2018-07-04T22:33:28.101Z,99.90
2018-07-04T22:36:06.951Z,99.90
2018-07-04T22:38:45.789Z,99.90
2018-07-04T22:41:24.501Z,99.90
2018-07-04T22:44:03.328Z,99.90
2018-07-04T22:46:42.087Z,99.90
2018-07-04T22:49:20.827Z,99.90
2018-07-04T22:51:59.577Z,99.90
2018-07-04T22:54:38.421Z,99.90
2018-07-04T22:57:17.773Z,99.90
2018-07-04T22:59:56.469Z,99.90
2018-07-04T23:02:35.208Z,99.90
2018-07-04T23:05:13.923Z,99.90
2018-07-04T23:07:52.653Z,99.90
2018-07-04T23:10:31.545Z,99.90
2018-07-04T23:13:10.553Z,99.90
2018-07-04T23:15:49.473Z,99.90
2018-07-04T23:18:28.290Z,99.90
2018-07-04T23:21:07.001Z,99.90
2018-07-04T23:23:46.146Z,99.90
2018-07-04T23:26:25.030Z,99.90
2018-07-04T23:29:03.705Z,99.90
2018-07-04T23:31:42.469Z,99.90
2018-07-04T23:34:21.241Z,99.90
2018-07-04T23:36:59.997Z,99.90
2018-07-04T23:39:38.742Z,99.90
2018-07-04T23:42:17.561Z,99.90
2018-07-04T23:44:56.302Z,99.90
2018-07-04T23:47:35.041Z,99.90
2018-07-04T23:50:13.897Z,99.90
2018-07-04T23:52:52.641Z,99.90
2018-07-04T23:55:31.352Z,99.90
2018-07-04T23:58:10.079Z,99.90
